createdAt,value
2018-12-13T00:02:25.025Z,49.25
2018-12-13T00:04:51.028Z,49.35
2018-12-13T00:07:16.968Z,49.96
2018-12-13T00:09:42.976Z,49.50
2018-12-13T00:12:09.024Z,49.33
2018-12-13T00:14:35.017Z,49.44
2018-12-13T00:17:01.164Z,50.27
2018-12-13T00:19:27.164Z,49.16
2018-12-13T00:21:53.110Z,49.66
2018-12-13T00:24:19.112Z,49.10
2018-12-13T00:26:45.128Z,50.07
2018-12-13T00:29:11.073Z,49.60
2018-12-13T00:31:37.080Z,49.17
2018-12-13T00:34:03.129Z,49.44
2018-12-13T00:36:29.122Z,49.19
2018-12-13T00:38:55.064Z,49.97
2018-12-13T00:41:21.064Z,50.04
2018-12-13T00:43:47.004Z,50.01
2018-12-13T00:46:13.020Z,49.46
2018-12-13T00:48:39.047Z,49.23
2018-12-13T00:51:05.064Z,49.28
2018-12-13T00:53:31.096Z,49.75
2018-12-13T00:55:57.101Z,49.74
2018-12-13T00:58:23.041Z,49.20
2018-12-13T01:00:49.049Z,49.53
2018-12-13T01:03:15.100Z,49.26
2018-12-13T01:05:41.089Z,49.77
2018-12-13T01:08:07.008Z,49.69
2018-12-13T01:10:32.959Z,49.18
2018-12-13T01:12:59.057Z,50.46
2018-12-13T01:15:25.100Z,49.93
2018-12-13T01:17:51.012Z,49.50
2018-12-13T01:20:17.044Z,49.47
2018-12-13T01:22:43.057Z,49.48
2018-12-13T01:25:09.088Z,49.87
2018-12-13T01:27:35.089Z,49.58
2018-12-13T01:30:01.033Z,49.85
2018-12-13T01:32:27.037Z,49.80
2018-12-13T01:34:52.988Z,49.27
2018-12-13T01:37:18.981Z,49.92
2018-12-13T01:39:44.947Z,50.04
2018-12-13T01:42:10.940Z,49.54
2018-12-13T01:44:36.956Z,50.32
2018-12-13T01:47:03.016Z,49.86
2018-12-13T01:49:28.989Z,49.57
2018-12-13T01:51:55.039Z,49.46
2018-12-13T01:54:21.045Z,49.55
2018-12-13T01:56:47.079Z,50.52
2018-12-13T01:59:13.080Z,49.98
2018-12-13T02:01:39.025Z,49.81
2018-12-13T02:04:05.033Z,49.86
2018-12-13T02:06:31.073Z,49.66
2018-12-13T02:08:57.068Z,50.19
2018-12-13T02:11:23.120Z,49.61
2018-12-13T02:13:49.129Z,50.11
2018-12-13T02:16:15.188Z,50.37
2018-12-13T02:18:41.108Z,49.73
2018-12-13T02:21:07.091Z,49.88
2018-12-13T02:23:33.128Z,49.88
2018-12-13T02:25:59.239Z,50.00
2018-12-13T02:28:25.284Z,49.71
2018-12-13T02:30:51.286Z,49.99
2018-12-13T02:33:17.321Z,50.19
2018-12-13T02:35:43.328Z,50.24
2018-12-13T02:38:09.271Z,49.92
2018-12-13T02:40:35.397Z,50.82
2018-12-13T02:43:01.412Z,50.20
2018-12-13T02:45:27.421Z,49.98
2018-12-13T02:47:53.460Z,49.95
2018-12-13T02:50:19.483Z,50.22
2018-12-13T02:52:45.616Z,50.49
2018-12-13T02:55:11.713Z,50.08
2018-12-13T02:57:37.656Z,50.56
2018-12-13T03:00:03.788Z,50.60
2018-12-13T03:02:29.805Z,50.07
2018-12-13T03:04:55.804Z,50.66
2018-12-13T03:07:21.760Z,49.96
2018-12-13T03:09:47.755Z,50.07
2018-12-13T03:12:13.876Z,50.28
2018-12-13T03:14:39.812Z,50.26
2018-12-13T03:17:05.884Z,50.34
2018-12-13T03:19:31.867Z,50.13
2018-12-13T03:21:57.969Z,50.14
2018-12-13T03:24:23.924Z,50.54
2018-12-13T03:26:49.908Z,50.15
2018-12-13T03:29:15.850Z,50.14
2018-12-13T03:31:41.865Z,50.86
2018-12-13T03:34:08.001Z,50.58
2018-12-13T03:36:34.008Z,50.60
2018-12-13T03:38:59.948Z,50.34
2018-12-13T03:41:25.949Z,50.70
2018-12-13T03:43:51.889Z,50.85
2018-12-13T03:46:17.892Z,50.82
2018-12-13T03:48:43.879Z,50.41
2018-12-13T03:51:09.836Z,50.82
2018-12-13T03:53:35.761Z,50.37
2018-12-13T03:56:01.909Z,50.41
2018-12-13T03:58:28.009Z,51.03
2018-12-13T04:00:54.148Z,50.42
2018-12-13T04:03:20.164Z,50.22
2018-12-13T04:05:46.201Z,50.94
2018-12-13T04:08:12.209Z,50.42
2018-12-13T04:10:38.372Z,50.39
2018-12-13T04:13:04.357Z,51.06
2018-12-13T04:15:30.497Z,50.53
2018-12-13T04:17:56.404Z,50.41
2018-12-13T04:20:22.479Z,51.07
2018-12-13T04:22:48.433Z,50.36
2018-12-13T04:25:14.376Z,51.00
2018-12-13T04:27:40.383Z,51.13
2018-12-13T04:30:06.429Z,50.47
2018-12-13T04:32:32.429Z,50.55
2018-12-13T04:34:58.521Z,51.18
2018-12-13T04:37:24.466Z,50.61
2018-12-13T04:39:50.504Z,50.50
2018-12-13T04:42:16.540Z,51.09
2018-12-13T04:44:42.545Z,50.73
2018-12-13T04:47:08.700Z,50.51
2018-12-13T04:49:34.701Z,50.67
2018-12-13T04:52:00.739Z,51.10
2018-12-13T04:54:26.844Z,50.58
2018-12-13T04:56:52.890Z,50.68
2018-12-13T04:59:18.897Z,50.72
2018-12-13T05:01:44.928Z,50.61
2018-12-13T05:04:10.937Z,51.06
2018-12-13T05:06:36.979Z,50.79
2018-12-13T05:09:05.153Z,50.64
2018-12-13T05:11:31.173Z,51.22
2018-12-13T05:13:57.189Z,51.36
2018-12-13T05:16:23.217Z,50.96
2018-12-13T05:18:49.120Z,51.25
2018-12-13T05:21:15.068Z,51.25
2018-12-13T05:23:41.087Z,51.24
2018-12-13T05:26:07.085Z,50.71
2018-12-13T05:28:33.132Z,51.18
2018-12-13T05:30:59.128Z,51.56
2018-12-13T05:33:25.073Z,50.93
2018-12-13T05:35:51.081Z,51.31
2018-12-13T05:38:17.220Z,51.39
2018-12-13T05:40:43.222Z,50.66
2018-12-13T05:43:09.164Z,50.90
2018-12-13T05:45:35.254Z,51.12
2018-12-13T05:48:01.217Z,50.84
2018-12-13T05:50:27.207Z,51.01
2018-12-13T05:52:53.147Z,50.79
2018-12-13T05:55:19.152Z,51.28
2018-12-13T05:57:45.089Z,51.03
2018-12-13T06:00:11.109Z,51.17
2018-12-13T06:02:37.164Z,51.46
2018-12-13T06:05:03.576Z,50.82
2018-12-13T06:07:29.580Z,51.31
2018-12-13T06:09:55.520Z,51.00
2018-12-13T06:12:21.529Z,51.58
2018-12-13T06:14:47.573Z,51.50
2018-12-13T06:17:13.568Z,51.03
2018-12-13T06:19:39.509Z,51.05
2018-12-13T06:22:05.508Z,50.72
2018-12-13T06:24:31.448Z,51.67
2018-12-13T06:26:57.461Z,51.79
2018-12-13T06:29:23.500Z,50.99
2018-12-13T06:31:49.500Z,50.50
2018-12-13T06:34:15.453Z,51.63
2018-12-13T06:36:41.440Z,51.51
2018-12-13T06:39:07.488Z,50.93
2018-12-13T06:41:33.712Z,50.91
2018-12-13T06:43:59.736Z,51.25
2018-12-13T06:46:25.752Z,50.88
2018-12-13T06:48:51.780Z,51.54
2018-12-13T06:51:17.796Z,51.27
2018-12-13T06:53:43.808Z,51.09
2018-12-13T06:56:09.756Z,51.48
2018-12-13T06:58:35.748Z,51.68
2018-12-13T07:01:01.700Z,51.00
2018-12-13T07:03:27.700Z,50.94
2018-12-13T07:05:53.644Z,51.50
2018-12-13T07:08:19.636Z,50.86
2018-12-13T07:10:45.586Z,51.11
2018-12-13T07:13:11.592Z,51.70
2018-12-13T07:15:37.624Z,50.96
2018-12-13T07:18:03.634Z,51.25
2018-12-13T07:20:29.681Z,51.06
2018-12-13T07:22:55.672Z,51.82
2018-12-13T07:25:21.622Z,51.45
2018-12-13T07:27:47.628Z,51.72
2018-12-13T07:30:13.659Z,51.10
2018-12-13T07:32:39.669Z,51.72
2018-12-13T07:35:05.732Z,51.62
2018-12-13T07:37:31.712Z,51.22
2018-12-13T07:39:57.657Z,51.59
2018-12-13T07:42:23.756Z,51.26
2018-12-13T07:44:49.703Z,51.56
2018-12-13T07:47:15.696Z,51.64
2018-12-13T07:49:41.648Z,51.73
2018-12-13T07:52:07.649Z,51.13
2018-12-13T07:54:33.556Z,51.53
2018-12-13T07:56:59.508Z,51.74
2018-12-13T07:59:25.532Z,51.59
2018-12-13T08:01:51.850Z,51.19
2018-12-13T08:04:17.860Z,52.38
2018-12-13T08:06:43.820Z,52.79
2018-12-13T08:09:09.913Z,51.85
2018-12-13T08:11:35.957Z,52.28
2018-12-13T08:14:02.292Z,52.13
2018-12-13T08:16:28.304Z,52.28
2018-12-13T08:18:54.303Z,52.56
2018-12-13T08:21:20.453Z,52.31
2018-12-13T08:23:46.457Z,52.69
2018-12-13T08:26:12.392Z,52.92
2018-12-13T08:28:38.392Z,52.95
2018-12-13T08:31:04.336Z,53.18
2018-12-13T08:33:30.444Z,53.32
2018-12-13T08:35:56.383Z,52.58
2018-12-13T08:38:27.289Z,52.90
2018-12-13T08:40:50.372Z,52.71
2018-12-13T08:43:16.380Z,52.66
2018-12-13T08:45:42.329Z,52.80
2018-12-13T08:48:08.320Z,52.34
2018-12-13T08:50:34.268Z,52.30
2018-12-13T08:53:00.264Z,52.91
2018-12-13T08:55:26.193Z,52.57
2018-12-13T08:57:52.228Z,52.10
2018-12-13T09:00:18.233Z,52.29
2018-12-13T09:02:44.173Z,51.95
2018-12-13T09:05:10.180Z,52.34
2018-12-13T09:07:36.127Z,52.43
2018-12-13T09:10:02.140Z,52.39
2018-12-13T09:12:28.152Z,52.03
2018-12-13T09:14:54.188Z,52.19
2018-12-13T09:17:20.192Z,52.28
2018-12-13T09:19:46.128Z,51.83
2018-12-13T09:22:12.136Z,51.51
2018-12-13T09:24:38.072Z,51.37
2018-12-13T09:27:04.146Z,51.62
2018-12-13T09:29:30.224Z,51.31
2018-12-13T09:31:56.229Z,51.16
2018-12-13T09:34:22.280Z,51.33
2018-12-13T09:36:48.272Z,51.74
2018-12-13T09:39:14.219Z,51.65
2018-12-13T09:41:40.533Z,51.20
2018-12-13T09:44:06.560Z,51.09
2018-12-13T09:46:32.577Z,50.99
2018-12-13T09:48:58.612Z,50.90
2018-12-13T09:51:24.622Z,50.71
2018-12-13T09:53:50.679Z,50.05
2018-12-13T09:56:16.660Z,50.61
2018-12-13T09:58:42.586Z,49.85
2018-12-13T10:01:08.625Z,48.11
2018-12-13T10:03:34.625Z,47.93
2018-12-13T10:06:00.569Z,47.69
2018-12-13T10:08:26.564Z,47.06
2018-12-13T10:10:52.517Z,46.13
2018-12-13T10:13:18.617Z,45.91
2018-12-13T10:15:44.564Z,45.62
2018-12-13T10:18:10.565Z,46.00
2018-12-13T10:20:36.605Z,46.19
2018-12-13T10:23:02.616Z,46.51
2018-12-13T10:25:28.757Z,45.65
2018-12-13T10:27:54.857Z,45.80
2018-12-13T10:30:20.797Z,46.01
2018-12-13T10:32:46.796Z,46.17
2018-12-13T10:35:12.740Z,46.61
2018-12-13T10:37:38.740Z,46.46
2018-12-13T10:40:04.729Z,46.75
2018-12-13T10:42:30.688Z,46.97
2018-12-13T10:44:56.704Z,47.30
2018-12-13T10:47:22.648Z,46.62
2018-12-13T10:49:48.652Z,46.63
2018-12-13T10:52:14.588Z,47.34
2018-12-13T10:54:40.600Z,47.18
2018-12-13T10:57:06.668Z,47.41
2018-12-13T10:59:32.640Z,46.84
2018-12-13T11:01:58.623Z,47.38
2018-12-13T11:04:24.597Z,47.12
2018-12-13T11:06:50.633Z,47.11
2018-12-13T11:09:16.632Z,47.34
2018-12-13T11:11:42.574Z,46.88
2018-12-13T11:14:08.577Z,47.29
2018-12-13T11:16:34.616Z,47.62
2018-12-13T11:19:00.625Z,46.92
2018-12-13T11:21:26.664Z,47.69
2018-12-13T11:23:52.665Z,47.14
2018-12-13T11:26:18.592Z,46.96
2018-12-13T11:28:50.344Z,47.74
2018-12-13T11:31:16.265Z,47.88
2018-12-13T11:33:42.200Z,47.84
2018-12-13T11:36:08.313Z,47.54
2018-12-13T11:38:34.252Z,47.30
2018-12-13T11:41:00.254Z,47.68
2018-12-13T11:43:26.289Z,47.90
2018-12-13T11:45:52.301Z,47.54
2018-12-13T11:48:18.241Z,42.06
2018-12-13T11:50:44.252Z,41.86
2018-12-13T11:53:10.413Z,39.76
2018-12-13T11:55:36.927Z,40.52
2018-12-13T11:58:07.684Z,40.90
2018-12-13T12:00:33.661Z,40.98
2018-12-13T12:02:59.609Z,40.83
2018-12-13T12:05:25.712Z,41.01
2018-12-13T12:07:51.762Z,41.02
2018-12-13T12:10:17.977Z,42.33
2018-12-13T12:12:44.001Z,42.54
2018-12-13T12:15:10.005Z,42.88
2018-12-13T12:17:36.020Z,42.32
2018-12-13T12:20:02.180Z,43.21
2018-12-13T12:22:28.180Z,43.11
2018-12-13T12:24:54.220Z,43.07
2018-12-13T12:27:20.238Z,42.88
2018-12-13T12:29:46.273Z,43.60
2018-12-13T12:32:12.268Z,43.17
2018-12-13T12:34:38.204Z,43.55
2018-12-13T12:37:04.209Z,44.09
2018-12-13T12:39:30.168Z,43.15
2018-12-13T12:41:56.149Z,43.23
2018-12-13T12:44:22.096Z,43.99
2018-12-13T12:46:48.113Z,43.56
2018-12-13T12:49:14.140Z,43.59
2018-12-13T12:51:40.165Z,43.61
2018-12-13T12:54:06.173Z,43.43
2018-12-13T12:56:32.337Z,43.33
2018-12-13T12:58:58.320Z,43.70
2018-12-13T13:01:24.364Z,43.43
2018-12-13T13:03:50.357Z,43.82
2018-12-13T13:06:16.414Z,43.76
2018-12-13T13:08:42.427Z,43.57
2018-12-13T13:11:08.552Z,43.44
2018-12-13T13:13:34.561Z,43.32
2018-12-13T13:16:00.609Z,43.70
2018-12-13T13:18:26.609Z,44.10
2018-12-13T13:20:52.640Z,44.35
2018-12-13T13:23:18.652Z,43.89
2018-12-13T13:25:44.694Z,44.05
2018-12-13T13:28:10.696Z,43.24
2018-12-13T13:30:36.632Z,44.13
2018-12-13T13:33:02.741Z,43.91
2018-12-13T13:35:28.656Z,43.53
2018-12-13T13:37:54.612Z,43.57
2018-12-13T13:40:20.609Z,44.42
2018-12-13T13:42:46.649Z,44.46
2018-12-13T13:45:12.656Z,44.25
2018-12-13T13:47:38.694Z,44.67
2018-12-13T13:50:04.816Z,44.20
2018-12-13T13:52:30.844Z,44.50
2018-12-13T13:54:56.848Z,44.06
2018-12-13T13:57:22.984Z,44.34
2018-12-13T13:59:48.995Z,44.86
2018-12-13T14:02:14.929Z,45.10
2018-12-13T14:04:41.060Z,44.62
2018-12-13T14:07:07.109Z,45.08
2018-12-13T14:09:37.922Z,44.70
2018-12-13T14:12:01.072Z,45.35
2018-12-13T14:14:27.072Z,45.58
2018-12-13T14:16:53.184Z,44.91
2018-12-13T14:19:20.597Z,45.66
2018-12-13T14:21:46.689Z,45.58
2018-12-13T14:24:12.737Z,45.24
2018-12-13T14:26:38.724Z,45.82
2018-12-13T14:29:04.677Z,45.10
2018-12-13T14:31:30.674Z,45.24
2018-12-13T14:33:56.828Z,45.75
2018-12-13T14:36:22.816Z,46.15
2018-12-13T14:38:48.756Z,45.46
2018-12-13T14:41:14.769Z,45.54
2018-12-13T14:43:40.809Z,46.08
2018-12-13T14:46:06.805Z,46.19
2018-12-13T14:48:32.748Z,46.42
2018-12-13T14:50:58.756Z,45.71
2018-12-13T14:53:24.892Z,46.04
2018-12-13T14:55:50.905Z,45.94
2018-12-13T14:58:17.060Z,45.72
2018-12-13T15:00:43.045Z,45.46
2018-12-13T15:03:08.991Z,45.44
2018-12-13T15:05:35.096Z,45.64
2018-12-13T15:08:01.013Z,45.48
2018-12-13T15:10:26.960Z,45.49
2018-12-13T15:12:52.957Z,45.26
2018-12-13T15:15:18.892Z,44.88
2018-12-13T15:17:44.901Z,45.04
2018-12-13T15:20:10.836Z,44.68
2018-12-13T15:22:36.945Z,45.30
2018-12-13T15:25:02.917Z,44.78
2018-12-13T15:27:28.888Z,44.82
2018-12-13T15:29:54.836Z,44.83
2018-12-13T15:32:20.834Z,45.07
2018-12-13T15:34:46.770Z,45.63
2018-12-13T15:37:12.779Z,45.49
2018-12-13T15:39:38.716Z,45.52
2018-12-13T15:42:04.729Z,45.14
2018-12-13T15:44:30.764Z,45.51
2018-12-13T15:46:56.764Z,46.10
2018-12-13T15:49:22.712Z,45.31
2018-12-13T15:51:48.709Z,44.43
2018-12-13T15:54:14.652Z,45.38
2018-12-13T15:56:40.654Z,44.32
2018-12-13T15:59:06.598Z,44.71
2018-12-13T16:01:32.609Z,44.40
2018-12-13T16:03:58.643Z,45.27
2018-12-13T16:06:24.753Z,45.50
2018-12-13T16:08:50.768Z,45.40
2018-12-13T16:11:17.636Z,45.16
2018-12-13T16:13:43.637Z,45.69
2018-12-13T16:16:09.672Z,45.64
2018-12-13T16:18:35.700Z,45.66
2018-12-13T16:21:01.724Z,45.24
2018-12-13T16:23:27.725Z,45.62
2018-12-13T16:25:53.677Z,45.96
2018-12-13T16:28:19.669Z,46.12
2018-12-13T16:30:45.607Z,45.29
2018-12-13T16:33:11.621Z,46.24
2018-12-13T16:35:38.569Z,45.62
2018-12-13T16:38:04.789Z,46.29
2018-12-13T16:40:30.728Z,45.95
2018-12-13T16:42:56.729Z,45.70
2018-12-13T16:45:22.672Z,45.92
2018-12-13T16:47:48.686Z,46.12
2018-12-13T16:50:14.728Z,46.60
2018-12-13T16:52:40.724Z,45.77
2018-12-13T16:55:06.817Z,45.82
2018-12-13T16:57:32.788Z,45.93
2018-12-13T16:59:58.789Z,46.09
2018-12-13T17:02:24.740Z,46.78
2018-12-13T17:04:50.765Z,46.33
2018-12-13T17:07:16.780Z,46.33
2018-12-13T17:09:42.781Z,46.19
2018-12-13T17:12:08.852Z,46.31
2018-12-13T17:14:34.820Z,47.10
2018-12-13T17:17:00.873Z,47.15
2018-12-13T17:19:26.869Z,46.93
2018-12-13T17:21:52.815Z,47.25
2018-12-13T17:24:18.912Z,47.11
2018-12-13T17:26:44.868Z,46.49
2018-12-13T17:29:10.864Z,46.47
2018-12-13T17:31:36.912Z,46.95
2018-12-13T17:34:02.915Z,46.67
2018-12-13T17:36:28.944Z,46.85
2018-12-13T17:38:54.952Z,46.50
2018-12-13T17:41:20.873Z,46.20
2018-12-13T17:43:46.808Z,46.51
2018-12-13T17:46:12.821Z,46.37
2018-12-13T17:48:38.860Z,46.50
2018-12-13T17:51:04.861Z,46.65
2018-12-13T17:53:30.808Z,46.68
2018-12-13T17:55:56.800Z,46.38
2018-12-13T17:58:22.745Z,46.59
2018-12-13T18:00:48.753Z,46.36
2018-12-13T18:03:14.796Z,45.87
2018-12-13T18:05:40.801Z,46.04
2018-12-13T18:08:06.843Z,46.39
2018-12-13T18:10:32.955Z,45.97
2018-12-13T18:12:58.988Z,46.42
2018-12-13T18:15:24.993Z,46.02
2018-12-13T18:17:51.049Z,46.62
2018-12-13T18:20:17.001Z,46.26
2018-12-13T18:22:42.976Z,47.10
2018-12-13T18:25:08.980Z,47.24
2018-12-13T18:27:34.931Z,47.13
2018-12-13T18:30:00.929Z,47.43
2018-12-13T18:32:26.967Z,46.97
2018-12-13T18:34:52.996Z,46.54
2018-12-13T18:37:19.137Z,46.27
2018-12-13T18:39:45.120Z,46.06
2018-12-13T18:42:11.253Z,45.25
2018-12-13T18:44:37.288Z,45.46
2018-12-13T18:47:03.511Z,44.82
2018-12-13T18:49:29.640Z,44.46
2018-12-13T18:51:55.645Z,45.01
2018-12-13T18:54:21.689Z,44.82
2018-12-13T18:56:47.689Z,45.07
2018-12-13T18:59:13.632Z,44.35
2018-12-13T19:01:39.636Z,44.18
2018-12-13T19:04:05.678Z,44.26
2018-12-13T19:06:31.676Z,44.62
2018-12-13T19:08:57.616Z,44.66
2018-12-13T19:11:23.625Z,44.57
2018-12-13T19:13:49.669Z,45.25
2018-12-13T19:16:15.670Z,45.36
2018-12-13T19:18:41.710Z,45.37
2018-12-13T19:21:07.624Z,45.41
2018-12-13T19:23:33.656Z,45.50
2018-12-13T19:25:59.656Z,44.93
2018-12-13T19:28:25.615Z,45.14
2018-12-13T19:30:51.604Z,45.60
2018-12-13T19:33:17.620Z,45.53
2018-12-13T19:35:43.564Z,45.06
2018-12-13T19:38:09.567Z,45.43
2018-12-13T19:40:35.610Z,45.45
2018-12-13T19:43:01.620Z,45.61
2018-12-13T19:45:27.756Z,45.11
2018-12-13T19:47:53.765Z,45.01
2018-12-13T19:50:19.800Z,45.08
2018-12-13T19:52:45.816Z,45.80
2018-12-13T19:55:11.860Z,45.24
2018-12-13T19:57:37.852Z,45.80
2018-12-13T20:00:04.644Z,45.33
2018-12-13T20:02:30.620Z,46.05
2018-12-13T20:04:56.656Z,45.77
2018-12-13T20:07:22.661Z,45.89
2018-12-13T20:09:48.605Z,45.50
2018-12-13T20:12:14.604Z,45.97
2018-12-13T20:14:40.532Z,45.58
2018-12-13T20:17:06.569Z,46.08
2018-12-13T20:19:32.572Z,45.95
2018-12-13T20:21:58.625Z,46.15
2018-12-13T20:24:24.617Z,46.20
2018-12-13T20:26:50.565Z,46.26
2018-12-13T20:29:16.561Z,46.27
2018-12-13T20:31:42.514Z,45.98
2018-12-13T20:34:08.508Z,46.39
2018-12-13T20:36:34.544Z,46.00
2018-12-13T20:39:00.561Z,45.87
2018-12-13T20:41:26.596Z,46.19
2018-12-13T20:43:52.607Z,46.47
2018-12-13T20:46:18.636Z,46.10
2018-12-13T20:48:44.650Z,45.99
2018-12-13T20:51:10.701Z,46.15
2018-12-13T20:53:36.693Z,45.97
2018-12-13T20:56:02.765Z,46.19
2018-12-13T20:58:28.740Z,46.06
2018-12-13T21:00:54.781Z,46.12
2018-12-13T21:03:20.795Z,45.85
2018-12-13T21:05:46.805Z,46.58
2018-12-13T21:08:12.850Z,46.82
2018-12-13T21:10:39.004Z,46.09
2018-12-13T21:13:05.013Z,46.27
2018-12-13T21:15:30.997Z,46.33
2018-12-13T21:17:57.072Z,46.89
2018-12-13T21:20:23.057Z,46.82
2018-12-13T21:22:49.089Z,46.55
2018-12-13T21:25:15.093Z,46.91
2018-12-13T21:27:41.136Z,46.16
2018-12-13T21:30:07.136Z,46.38
2018-12-13T21:32:33.072Z,46.37
2018-12-13T21:34:59.080Z,46.84
2018-12-13T21:37:25.120Z,47.00
2018-12-13T21:39:51.124Z,46.79
2018-12-13T21:42:17.077Z,47.01
2018-12-13T21:44:43.064Z,46.49
2018-12-13T21:47:09.125Z,47.16
2018-12-13T21:49:35.118Z,46.94
2018-12-13T21:52:01.161Z,46.49
2018-12-13T21:54:27.163Z,46.63
2018-12-13T21:56:53.203Z,46.76
2018-12-13T21:59:19.228Z,47.25
2018-12-13T22:01:45.225Z,47.20
2018-12-13T22:04:11.177Z,47.17
2018-12-13T22:06:37.172Z,46.70
2018-12-13T22:09:04.599Z,46.63
2018-12-13T22:11:30.553Z,46.68
2018-12-13T22:13:56.593Z,46.82
2018-12-13T22:16:22.592Z,46.72
2018-12-13T22:18:48.536Z,46.99
2018-12-13T22:21:14.452Z,46.81
2018-12-13T22:23:40.481Z,47.32
2018-12-13T22:26:06.484Z,47.49
2018-12-13T22:28:32.420Z,47.40
2018-12-13T22:30:58.424Z,46.83
2018-12-13T22:33:24.364Z,46.85
2018-12-13T22:35:50.369Z,47.47
2018-12-13T22:38:16.313Z,46.63
2018-12-13T22:40:42.313Z,46.43
2018-12-13T22:43:08.236Z,46.89
2018-12-13T22:45:34.277Z,46.06
2018-12-13T22:48:00.274Z,46.68
2018-12-13T22:50:26.219Z,46.36
2018-12-13T22:52:52.323Z,47.04
2018-12-13T22:55:18.374Z,46.44
2018-12-13T22:57:44.377Z,46.54
2018-12-13T23:00:10.510Z,46.65
2018-12-13T23:02:36.572Z,46.95
2018-12-13T23:05:02.604Z,46.71
2018-12-13T23:07:28.571Z,47.34
2018-12-13T23:09:54.609Z,47.30
2018-12-13T23:12:20.608Z,46.56
2018-12-13T23:14:46.553Z,46.79
2018-12-13T23:17:12.553Z,47.08
2018-12-13T23:19:38.496Z,46.79
2018-12-13T23:22:04.412Z,46.89
2018-12-13T23:24:30.436Z,47.47
2018-12-13T23:26:56.440Z,46.72
2018-12-13T23:29:22.360Z,47.63
2018-12-13T23:31:48.319Z,47.61
2018-12-13T23:34:14.308Z,47.17
2018-12-13T23:36:40.249Z,47.66
2018-12-13T23:39:06.252Z,47.71
2018-12-13T23:41:32.294Z,47.33
2018-12-13T23:43:58.296Z,48.11
2018-12-13T23:46:24.248Z,47.39
2018-12-13T23:48:50.228Z,47.34
2018-12-13T23:51:16.176Z,47.84
2018-12-13T23:53:42.184Z,47.38
2018-12-13T23:56:08.121Z,47.87
2018-12-13T23:58:34.124Z,47.87
